createdAt,value
2022-10-18T00:01:23.007Z,8.52
2022-10-18T00:03:24.935Z,8.68
2022-10-18T00:05:27.816Z,8.93
2022-10-18T00:07:29.722Z,9.48
2022-10-18T00:09:31.621Z,9.70
2022-10-18T00:11:35.685Z,10.48
2022-10-18T00:13:37.535Z,10.40
2022-10-18T00:15:39.098Z,10.07
2022-10-18T00:17:40.681Z,10.13
2022-10-18T00:19:42.248Z,9.32
2022-10-18T00:23:53.287Z,8.32
2022-10-18T00:26:05.870Z,9.32
2022-10-18T00:28:07.321Z,9.13
2022-10-18T00:30:09.855Z,11.07
2022-10-18T00:32:11.379Z,9.93
2022-10-18T00:34:15.273Z,9.38
2022-10-18T00:36:16.947Z,9.20
2022-10-18T00:38:22.840Z,7.90
2022-10-18T00:40:24.326Z,7.28
2022-10-18T00:42:30.114Z,6.55
2022-10-18T00:45:17.488Z,8.27
2022-10-18T00:47:19.877Z,7.53
2022-10-18T00:49:24.928Z,7.07
2022-10-18T00:51:30.500Z,7.70
2022-10-18T00:53:36.345Z,6.90
2022-10-18T00:55:37.888Z,6.93
2022-10-18T00:57:41.654Z,7.35
2022-10-18T00:59:44.210Z,7.03
2022-10-18T01:01:46.100Z,6.80
2022-10-18T01:03:51.282Z,7.90
2022-10-18T01:05:52.917Z,6.93
2022-10-18T01:08:18.382Z,7.03
2022-10-18T01:10:30.075Z,6.35
2022-10-18T01:12:44.674Z,6.43
2022-10-18T01:14:52.696Z,6.22
2022-10-18T01:17:00.290Z,6.25
2022-10-18T01:21:17.715Z,5.95
2022-10-18T01:23:35.049Z,6.30
2022-10-18T01:25:53.404Z,6.65
2022-10-18T01:28:00.756Z,6.30
2022-10-18T01:30:36.191Z,6.32
2022-10-18T01:32:42.928Z,6.03
2022-10-18T01:34:47.843Z,7.28
2022-10-18T01:36:53.098Z,6.93
2022-10-18T01:38:58.568Z,6.18
2022-10-18T01:41:02.979Z,6.10
2022-10-18T01:45:13.283Z,6.05
2022-10-18T01:47:17.789Z,5.57
2022-10-18T01:49:19.424Z,6.32
2022-10-18T01:51:24.587Z,6.15
2022-10-18T01:53:30.183Z,5.18
2022-10-18T01:55:40.865Z,6.82
2022-10-18T01:58:00.206Z,7.43
2022-10-18T02:00:05.204Z,6.47
2022-10-18T02:02:16.289Z,6.07
2022-10-18T02:04:29.299Z,5.68
2022-10-18T02:06:38.183Z,5.68
2022-10-18T02:08:46.611Z,5.95
2022-10-18T02:10:50.956Z,5.97
2022-10-18T02:12:55.033Z,5.82
2022-10-18T02:14:58.199Z,5.90
2022-10-18T02:17:05.154Z,6.63
2022-10-18T02:19:14.979Z,6.10
2022-10-18T02:21:21.203Z,6.30
2022-10-18T02:23:25.702Z,6.35
2022-10-18T02:25:30.233Z,6.05
2022-10-18T02:27:31.813Z,6.10
2022-10-18T02:29:33.813Z,6.40
2022-10-18T02:31:41.478Z,6.28
2022-10-18T02:33:50.505Z,6.53
2022-10-18T02:36:00.648Z,6.15
2022-10-18T02:38:05.433Z,7.47
2022-10-18T02:40:09.786Z,6.78
2022-10-18T02:42:11.883Z,6.38
2022-10-18T02:44:13.441Z,5.72
2022-10-18T02:46:15.100Z,5.18
2022-10-18T02:48:16.695Z,5.60
2022-10-18T02:50:18.636Z,5.40
2022-10-18T02:52:20.205Z,5.50
2022-10-18T02:54:23.521Z,5.68
2022-10-18T02:56:25.100Z,5.60
2022-10-18T02:58:26.628Z,5.85
2022-10-18T03:00:28.166Z,5.80
2022-10-18T03:02:29.693Z,5.88
2022-10-18T03:04:31.228Z,5.60
2022-10-18T03:06:33.502Z,5.95
2022-10-18T03:08:36.022Z,5.90
2022-10-18T03:10:39.032Z,5.45
2022-10-18T03:12:40.577Z,5.63
2022-10-18T03:14:42.167Z,5.57
2022-10-18T03:16:43.777Z,5.53
2022-10-18T03:18:45.319Z,6.05
2022-10-18T03:20:46.935Z,5.80
2022-10-18T03:22:48.482Z,5.97
2022-10-18T03:24:49.973Z,6.10
2022-10-18T03:26:52.964Z,5.70
2022-10-18T03:28:54.616Z,5.82
2022-10-18T03:31:00.448Z,6.30
2022-10-18T03:33:01.954Z,5.95
2022-10-18T03:35:03.959Z,5.53
2022-10-18T03:37:05.602Z,6.93
2022-10-18T03:39:07.614Z,6.53
2022-10-18T03:41:10.192Z,6.47
2022-10-18T03:43:13.011Z,6.15
2022-10-18T03:45:14.564Z,5.80
2022-10-18T03:47:16.094Z,5.88
2022-10-18T03:49:17.576Z,6.50
2022-10-18T03:51:19.084Z,6.03
2022-10-18T03:53:20.664Z,6.32
2022-10-18T03:55:22.298Z,6.20
2022-10-18T03:57:23.874Z,6.60
2022-10-18T03:59:26.853Z,6.72
2022-10-18T04:01:28.421Z,5.82
2022-10-18T04:03:29.944Z,6.38
2022-10-18T04:05:31.475Z,6.65
2022-10-18T04:07:33.098Z,6.40
2022-10-18T04:09:34.683Z,6.70
2022-10-18T04:11:36.266Z,6.60
2022-10-18T04:13:37.912Z,5.68
2022-10-18T04:15:40.783Z,6.20
2022-10-18T04:17:45.112Z,5.93
2022-10-18T04:19:46.686Z,5.68
2022-10-18T04:21:48.273Z,6.85
2022-10-18T04:23:50.907Z,6.70
2022-10-18T04:25:52.492Z,6.13
2022-10-18T04:27:54.007Z,7.35
2022-10-18T04:29:55.541Z,7.88
2022-10-18T04:31:58.418Z,6.47
2022-10-18T04:34:01.155Z,6.72
2022-10-18T04:36:02.723Z,6.88
2022-10-18T04:38:04.346Z,7.43
2022-10-18T04:40:07.164Z,7.53
2022-10-18T04:42:08.670Z,8.82
2022-10-18T04:44:10.414Z,7.65
2022-10-18T04:46:11.901Z,7.97
2022-10-18T04:48:15.335Z,7.88
2022-10-18T04:50:17.054Z,9.43
2022-10-18T04:52:19.326Z,9.85
2022-10-18T04:54:22.791Z,12.52
2022-10-18T04:56:26.686Z,8.95
2022-10-18T04:58:28.296Z,10.20
2022-10-18T05:00:29.827Z,8.45
2022-10-18T05:02:31.872Z,8.13
2022-10-18T05:04:35.735Z,8.27
2022-10-18T05:06:37.244Z,7.35
2022-10-18T05:08:38.706Z,7.60
2022-10-18T05:10:40.421Z,8.80
2022-10-18T05:12:41.949Z,6.43
2022-10-18T05:14:43.509Z,23.58
2022-10-18T05:16:45.027Z,12.68
2022-10-18T05:18:46.826Z,7.25
2022-10-18T05:20:50.085Z,6.88
2022-10-18T05:22:51.577Z,6.63
2022-10-18T05:24:53.423Z,8.63
2022-10-18T05:26:55.094Z,8.68
2022-10-18T05:28:56.811Z,8.68
2022-10-18T05:31:01.084Z,8.25
2022-10-18T05:33:02.578Z,12.02
2022-10-18T05:35:04.702Z,7.57
2022-10-18T05:37:07.624Z,6.88
2022-10-18T05:39:09.221Z,6.60
2022-10-18T05:41:11.600Z,8.32
2022-10-18T05:43:13.114Z,8.40
2022-10-18T05:45:14.799Z,7.53
2022-10-18T05:47:16.292Z,15.07
2022-10-18T05:49:18.105Z,9.90
2022-10-18T05:51:19.658Z,12.45
2022-10-18T05:53:36.229Z,9.93
2022-10-18T05:55:38.641Z,12.45
2022-10-18T05:57:40.160Z,8.73
2022-10-18T05:59:41.717Z,7.68
2022-10-18T06:01:43.441Z,9.90
2022-10-18T06:03:44.948Z,9.20
2022-10-18T06:05:46.469Z,9.65
2022-10-18T06:07:51.179Z,8.32
2022-10-18T06:09:53.999Z,7.85
2022-10-18T06:11:55.495Z,8.00
2022-10-18T06:13:57.271Z,7.85
2022-10-18T06:15:58.765Z,7.57
2022-10-18T06:18:00.244Z,8.82
2022-10-18T06:20:01.776Z,7.95
2022-10-18T06:22:03.353Z,8.32
2022-10-18T06:24:05.700Z,7.88
2022-10-18T06:26:11.217Z,7.40
2022-10-18T06:28:12.699Z,7.40
2022-10-18T06:30:14.253Z,6.90
2022-10-18T06:32:15.802Z,7.38
2022-10-18T06:34:17.280Z,8.18
2022-10-18T06:36:20.854Z,6.85
2022-10-18T06:38:22.513Z,6.80
2022-10-18T06:40:24.267Z,7.38
2022-10-18T06:42:27.205Z,7.90
2022-10-18T06:44:28.707Z,7.30
2022-10-18T06:46:30.207Z,7.28
2022-10-18T06:48:32.222Z,7.45
2022-10-18T06:50:33.768Z,6.95
2022-10-18T06:52:35.354Z,7.93
2022-10-18T06:54:36.845Z,7.45
2022-10-18T06:56:38.635Z,8.00
2022-10-18T06:58:41.522Z,7.47
2022-10-18T07:00:43.130Z,7.35
2022-10-18T07:02:44.650Z,7.45
2022-10-18T07:04:46.168Z,7.15
2022-10-18T07:06:48.094Z,7.13
2022-10-18T07:08:51.408Z,7.43
2022-10-18T07:10:53.476Z,8.18
2022-10-18T07:13:08.047Z,7.03
2022-10-18T07:15:18.811Z,6.78
2022-10-18T07:17:20.434Z,6.70
2022-10-18T07:19:21.972Z,7.20
2022-10-18T07:21:25.096Z,6.72
2022-10-18T07:23:26.694Z,6.50
2022-10-18T07:25:29.909Z,7.22
2022-10-18T07:27:36.477Z,7.65
2022-10-18T07:29:38.125Z,7.53
2022-10-18T07:31:41.143Z,7.25
2022-10-18T07:33:42.748Z,8.27
2022-10-18T07:35:44.272Z,7.55
2022-10-18T07:37:45.881Z,7.15
2022-10-18T07:39:47.399Z,5.82
2022-10-18T07:41:48.964Z,6.15
2022-10-18T07:43:51.970Z,5.93
2022-10-18T07:45:53.724Z,6.75
2022-10-18T07:47:57.019Z,6.85
2022-10-18T07:49:58.530Z,7.43
2022-10-18T07:52:00.078Z,6.93
2022-10-18T07:54:04.216Z,7.20
2022-10-18T07:56:09.565Z,6.78
2022-10-18T07:58:11.858Z,6.95
2022-10-18T08:00:14.000Z,6.70
2022-10-18T08:02:15.812Z,5.72
2022-10-18T08:04:18.826Z,6.30
2022-10-18T08:06:21.924Z,5.30
2022-10-18T08:08:24.687Z,4.68
2022-10-18T08:10:26.241Z,4.43
2022-10-18T08:12:27.709Z,5.72
2022-10-18T08:14:29.404Z,5.30
2022-10-18T08:18:38.412Z,5.07
2022-10-18T08:20:44.817Z,4.22
2022-10-18T08:22:50.198Z,4.10
2022-10-18T08:24:51.709Z,4.05
2022-10-18T08:26:53.294Z,3.97
2022-10-18T08:29:10.378Z,4.00
2022-10-18T08:31:18.356Z,4.75
2022-10-18T08:33:19.920Z,4.60
2022-10-18T08:35:21.468Z,4.95
2022-10-18T08:37:24.474Z,5.07
2022-10-18T08:39:26.129Z,4.60
2022-10-18T08:41:58.531Z,4.13
2022-10-18T08:44:07.778Z,5.20
2022-10-18T08:46:12.634Z,5.53
2022-10-18T08:48:21.032Z,5.35
2022-10-18T08:50:25.842Z,5.32
2022-10-18T08:52:34.463Z,5.38
2022-10-18T08:54:39.480Z,4.90
2022-10-18T08:56:45.304Z,5.15
2022-10-18T08:58:47.243Z,5.50
2022-10-18T09:00:58.534Z,5.55
2022-10-18T09:03:19.225Z,4.97
2022-10-18T09:05:28.012Z,6.38
2022-10-18T09:07:53.937Z,5.35
2022-10-18T09:10:01.488Z,3.83
2022-10-18T09:12:16.845Z,3.80
2022-10-18T09:14:38.347Z,4.20
2022-10-18T09:16:46.908Z,4.30
2022-10-18T09:18:58.317Z,4.93
2022-10-18T09:21:05.282Z,4.80
2022-10-18T09:23:16.286Z,5.30
2022-10-18T09:25:21.165Z,5.80
2022-10-18T09:27:34.838Z,5.32
2022-10-18T09:29:48.970Z,4.78
2022-10-18T09:31:55.850Z,4.45
2022-10-18T09:34:00.785Z,4.93
2022-10-18T09:36:05.042Z,5.68
2022-10-18T09:38:13.352Z,5.32
2022-10-18T09:40:19.335Z,4.97
2022-10-18T09:42:24.526Z,4.90
2022-10-18T09:44:30.154Z,5.70
2022-10-18T09:46:37.148Z,5.85
2022-10-18T09:48:45.265Z,5.95
2022-10-18T09:50:51.833Z,5.78
2022-10-18T09:53:03.270Z,7.10
2022-10-18T09:55:15.390Z,6.43
2022-10-18T09:57:23.471Z,6.30
2022-10-18T09:59:33.829Z,5.95
2022-10-18T10:01:35.780Z,5.25
2022-10-18T10:03:37.538Z,5.65
2022-10-18T10:05:39.113Z,6.00
2022-10-18T10:07:43.557Z,6.50
2022-10-18T10:09:47.419Z,6.25
2022-10-18T10:11:51.954Z,6.55
2022-10-18T10:13:57.895Z,6.95
2022-10-18T10:16:02.575Z,7.90
2022-10-18T10:18:07.195Z,6.28
2022-10-18T10:20:17.879Z,6.32
2022-10-18T10:22:27.689Z,6.78
2022-10-18T10:24:46.656Z,6.38
2022-10-18T10:26:48.309Z,6.47
2022-10-18T10:28:51.550Z,6.25
2022-10-18T10:30:53.503Z,6.25
2022-10-18T10:32:55.849Z,6.05
2022-10-18T10:34:58.293Z,5.72
2022-10-18T10:36:59.812Z,5.93
2022-10-18T10:39:06.489Z,5.53
2022-10-18T10:41:20.104Z,5.28
2022-10-18T10:43:40.766Z,5.57
2022-10-18T10:45:58.309Z,5.63
2022-10-18T10:48:06.746Z,5.28
2022-10-18T10:50:11.779Z,5.78
2022-10-18T10:52:27.738Z,5.13
2022-10-18T10:54:31.532Z,5.25
2022-10-18T10:56:35.815Z,5.60
2022-10-18T10:58:39.851Z,5.90
2022-10-18T11:00:44.678Z,5.43
2022-10-18T11:02:59.189Z,5.20
2022-10-18T11:05:22.645Z,5.03
2022-10-18T11:07:29.860Z,5.15
2022-10-18T11:09:44.186Z,6.38
2022-10-18T11:11:59.532Z,5.95
2022-10-18T11:14:26.217Z,5.15
2022-10-18T11:16:36.658Z,5.85
2022-10-18T11:18:38.478Z,5.50
2022-10-18T11:20:43.536Z,5.50
2022-10-18T11:22:53.927Z,5.82
2022-10-18T11:24:55.638Z,5.57
2022-10-18T11:27:01.776Z,5.25
2022-10-18T11:29:29.719Z,5.35
2022-10-18T11:31:41.350Z,5.18
2022-10-18T11:34:10.157Z,4.93
2022-10-18T11:36:18.285Z,4.50
2022-10-18T11:38:31.180Z,5.10
2022-10-18T11:40:53.801Z,4.38
2022-10-18T11:43:05.535Z,6.05
2022-10-18T11:45:22.212Z,6.25
2022-10-18T11:47:36.549Z,5.38
2022-10-18T11:49:56.143Z,4.93
2022-10-18T11:52:09.046Z,4.80
2022-10-18T11:54:24.469Z,4.95
2022-10-18T11:56:32.560Z,4.68
2022-10-18T11:58:46.515Z,4.63
2022-10-18T12:03:08.075Z,4.30
2022-10-18T12:05:23.250Z,4.47
2022-10-18T12:07:32.496Z,4.18
2022-10-18T12:09:37.736Z,4.55
2022-10-18T12:11:47.116Z,4.85
2022-10-18T12:13:52.384Z,4.95
2022-10-18T12:15:55.469Z,5.25
2022-10-18T12:18:03.219Z,5.28
2022-10-18T12:20:11.270Z,5.22
2022-10-18T12:22:18.246Z,5.28
2022-10-18T12:24:23.619Z,5.40
2022-10-18T12:26:27.298Z,5.75
2022-10-18T12:28:38.457Z,5.20
2022-10-18T12:30:46.971Z,5.82
2022-10-18T12:33:03.528Z,4.53
2022-10-18T12:35:16.302Z,4.82
2022-10-18T12:37:48.630Z,4.60
2022-10-18T12:40:11.424Z,4.78
2022-10-18T12:42:20.448Z,4.95
2022-10-18T12:44:28.699Z,5.15
2022-10-18T12:46:45.545Z,6.03
2022-10-18T12:49:03.771Z,7.03
2022-10-18T12:51:14.334Z,6.10
2022-10-18T12:53:19.124Z,5.97
2022-10-18T12:55:32.038Z,5.60
2022-10-18T12:58:04.066Z,5.13
2022-10-18T13:00:27.053Z,4.40
2022-10-18T13:02:31.500Z,4.05
2022-10-18T13:04:34.600Z,4.38
2022-10-18T13:07:17.536Z,4.63
2022-10-18T13:09:21.363Z,4.38
2022-10-18T13:11:35.984Z,4.55
2022-10-18T13:14:02.712Z,4.63
2022-10-18T13:16:12.580Z,4.43
2022-10-18T13:18:24.450Z,4.47
2022-10-18T13:20:37.187Z,5.28
2022-10-18T13:22:56.036Z,5.10
2022-10-18T13:25:03.832Z,4.53
2022-10-18T13:27:42.481Z,4.97
2022-10-18T13:30:02.495Z,4.65
2022-10-18T13:34:25.936Z,5.95
2022-10-18T13:36:32.686Z,6.13
2022-10-18T13:38:43.976Z,5.93
2022-10-18T13:40:45.526Z,6.00
2022-10-18T13:42:47.249Z,5.88
2022-10-18T13:44:48.771Z,5.72
2022-10-18T13:47:12.830Z,6.25
2022-10-18T13:49:31.558Z,5.68
2022-10-18T13:51:49.120Z,5.50
2022-10-18T13:54:03.370Z,5.25
2022-10-18T13:56:18.969Z,5.07
2022-10-18T13:58:30.692Z,5.40
2022-10-18T14:00:59.097Z,6.03
2022-10-18T14:03:44.118Z,5.25
2022-10-18T14:05:50.617Z,5.57
2022-10-18T14:07:59.987Z,5.43
2022-10-18T14:10:05.066Z,5.75
2022-10-18T14:12:17.116Z,5.75
2022-10-18T14:14:25.136Z,5.53
2022-10-18T14:16:39.575Z,5.55
2022-10-18T14:18:44.152Z,5.90
2022-10-18T14:21:12.205Z,5.32
2022-10-18T14:23:17.521Z,6.35
2022-10-18T14:25:27.668Z,6.05
2022-10-18T14:27:31.001Z,5.90
2022-10-18T14:29:33.179Z,6.10
2022-10-18T14:31:35.155Z,5.50
2022-10-18T14:33:39.529Z,5.63
2022-10-18T14:35:41.380Z,5.80
2022-10-18T14:37:43.861Z,5.85
2022-10-18T14:39:46.564Z,5.88
2022-10-18T14:41:52.219Z,5.63
2022-10-18T14:44:16.621Z,5.30
2022-10-18T14:46:21.571Z,5.38
2022-10-18T14:48:24.167Z,5.32
2022-10-18T14:50:30.624Z,5.07
2022-10-18T14:52:35.590Z,5.55
2022-10-18T14:54:38.318Z,6.10
2022-10-18T14:56:41.216Z,5.47
2022-10-18T14:58:44.534Z,6.07
2022-10-18T15:00:48.573Z,5.70
2022-10-18T15:02:50.955Z,5.65
2022-10-18T15:04:58.046Z,5.65
2022-10-18T15:07:01.393Z,5.22
2022-10-18T15:09:05.544Z,5.95
2022-10-18T15:11:11.865Z,6.03
2022-10-18T15:13:25.068Z,5.75
2022-10-18T15:15:33.262Z,5.55
2022-10-18T15:17:35.688Z,6.55
2022-10-18T15:19:38.862Z,6.32
2022-10-18T15:21:51.812Z,6.20
2022-10-18T15:23:55.606Z,6.43
2022-10-18T15:26:01.855Z,6.18
2022-10-18T15:28:03.852Z,6.55
2022-10-18T15:30:07.152Z,6.15
2022-10-18T15:32:18.142Z,6.40
2022-10-18T15:34:23.974Z,6.20
2022-10-18T15:36:28.953Z,6.10
2022-10-18T15:38:31.916Z,6.30
2022-10-18T15:40:38.763Z,6.07
2022-10-18T15:42:40.495Z,6.32
2022-10-18T15:44:48.688Z,6.57
2022-10-18T15:46:52.537Z,6.47
2022-10-18T15:49:18.931Z,6.80
2022-10-18T15:51:47.030Z,6.25
2022-10-18T15:53:53.490Z,7.22
2022-10-18T15:55:58.245Z,6.68
2022-10-18T15:58:03.464Z,7.22
2022-10-18T16:00:08.208Z,7.20
2022-10-18T16:02:13.507Z,6.43
2022-10-18T16:04:20.778Z,7.38
2022-10-18T16:06:23.219Z,6.43
2022-10-18T16:08:26.719Z,6.88
2022-10-18T16:10:28.919Z,6.70
2022-10-18T16:12:30.673Z,7.53
2022-10-18T16:14:32.737Z,7.22
2022-10-18T16:16:34.770Z,8.32
2022-10-18T16:18:36.536Z,7.38
2022-10-18T16:20:39.683Z,8.30
2022-10-18T16:22:41.760Z,8.80
2022-10-18T16:24:43.732Z,8.75
2022-10-18T16:26:45.854Z,8.82
2022-10-18T16:28:48.939Z,9.15
2022-10-18T16:30:56.749Z,9.02
2022-10-18T16:32:58.713Z,11.40
2022-10-18T16:35:00.549Z,10.13
2022-10-18T16:37:03.778Z,12.85
2022-10-18T16:39:07.315Z,12.90
2022-10-18T16:41:09.862Z,11.70
2022-10-18T16:43:11.616Z,11.63
2022-10-18T16:45:13.296Z,9.90
2022-10-18T16:47:15.114Z,11.05
2022-10-18T16:49:23.008Z,13.55
2022-10-18T16:51:25.610Z,15.10
2022-10-18T16:53:29.201Z,12.18
2022-10-18T16:55:30.980Z,11.07
2022-10-18T16:57:32.497Z,11.50
2022-10-18T16:59:34.233Z,13.93
2022-10-18T17:01:35.772Z,12.25
2022-10-18T17:03:37.534Z,13.23
2022-10-18T17:05:39.173Z,16.30
2022-10-18T17:07:40.723Z,13.07
2022-10-18T17:09:43.674Z,12.80
2022-10-18T17:11:45.182Z,11.70
2022-10-18T17:13:47.091Z,11.48
2022-10-18T17:15:49.287Z,10.95
2022-10-18T17:17:51.032Z,11.27
2022-10-18T17:19:52.497Z,12.02
2022-10-18T17:21:54.816Z,12.05
2022-10-18T17:23:58.552Z,10.75
2022-10-18T17:26:07.199Z,12.68
2022-10-18T17:28:13.540Z,12.98
2022-10-18T17:30:15.178Z,11.45
2022-10-18T17:32:16.639Z,13.23
2022-10-18T17:34:21.150Z,12.10
2022-10-18T17:36:23.104Z,12.75
2022-10-18T17:38:24.653Z,13.23
2022-10-18T17:40:26.221Z,11.98
2022-10-18T17:42:29.087Z,10.80
2022-10-18T17:44:30.605Z,11.73
2022-10-18T17:46:32.104Z,10.85
2022-10-18T17:48:34.046Z,12.65
2022-10-18T17:50:35.660Z,14.23
2022-10-18T17:54:48.012Z,13.82
2022-10-18T17:56:52.359Z,12.77
2022-10-18T17:58:57.365Z,12.38
2022-10-18T18:01:08.673Z,14.48
2022-10-18T18:03:10.207Z,15.27
2022-10-18T18:05:11.760Z,13.40
2022-10-18T18:07:16.063Z,14.38
2022-10-18T18:09:17.617Z,14.52
2022-10-18T18:11:20.683Z,14.07
2022-10-18T18:13:22.368Z,12.52
2022-10-18T18:15:25.271Z,14.00
2022-10-18T18:17:34.125Z,13.43
2022-10-18T18:19:36.564Z,17.00
2022-10-18T18:21:39.290Z,14.70
2022-10-18T18:23:40.813Z,13.75
2022-10-18T18:25:42.291Z,14.38
2022-10-18T18:27:43.855Z,12.82
2022-10-18T18:29:45.302Z,12.98
2022-10-18T18:31:49.224Z,13.73
2022-10-18T18:33:51.861Z,12.82
2022-10-18T18:35:57.248Z,12.80
2022-10-18T18:38:00.268Z,12.82
2022-10-18T18:40:01.856Z,15.07
2022-10-18T18:42:03.657Z,13.20
2022-10-18T18:44:05.833Z,12.48
2022-10-18T18:46:08.435Z,11.98
2022-10-18T18:48:12.097Z,11.32
2022-10-18T18:50:16.066Z,11.95
2022-10-18T18:52:17.726Z,10.93
2022-10-18T18:54:19.263Z,10.60
2022-10-18T18:56:23.113Z,11.55
2022-10-18T18:58:27.462Z,11.07
2022-10-18T19:00:30.904Z,11.70
2022-10-18T19:02:32.512Z,9.63
2022-10-18T19:04:37.290Z,9.27
2022-10-18T19:06:40.841Z,8.20
2022-10-18T19:08:43.491Z,8.63
2022-10-18T19:10:45.066Z,7.85
2022-10-18T19:12:47.735Z,8.07
2022-10-18T19:14:49.378Z,8.30
2022-10-18T19:16:51.695Z,12.13
2022-10-18T19:18:58.118Z,8.18
2022-10-18T19:21:01.051Z,10.10
2022-10-18T19:23:02.588Z,7.80
2022-10-18T19:25:07.379Z,7.30
2022-10-18T19:27:10.203Z,11.57
2022-10-18T19:29:13.826Z,7.10
2022-10-18T19:31:15.728Z,8.98
2022-10-18T19:33:17.236Z,6.75
2022-10-18T19:35:18.732Z,8.63
2022-10-18T19:37:21.669Z,6.88
2022-10-18T19:39:25.771Z,9.13
2022-10-18T19:41:27.597Z,8.45
2022-10-18T19:43:29.129Z,6.80
2022-10-18T19:45:30.666Z,5.20
2022-10-18T19:47:32.148Z,5.43
2022-10-18T19:49:33.668Z,6.22
2022-10-18T19:51:35.498Z,6.05
2022-10-18T19:53:38.550Z,6.22
2022-10-18T19:55:40.032Z,5.80
2022-10-18T19:57:41.853Z,8.27
2022-10-18T19:59:43.353Z,10.00
2022-10-18T20:01:45.236Z,6.50
2022-10-18T20:03:46.970Z,5.00
2022-10-18T20:05:54.558Z,5.75
2022-10-18T20:07:56.110Z,6.70
2022-10-18T20:09:59.004Z,5.22
2022-10-18T20:12:00.486Z,9.90
2022-10-18T20:14:02.320Z,5.80
2022-10-18T20:16:04.962Z,5.75
2022-10-18T20:18:06.446Z,4.70
2022-10-18T20:20:09.061Z,4.85
2022-10-18T20:22:10.540Z,10.52
2022-10-18T20:24:12.059Z,5.43
2022-10-18T20:26:18.282Z,5.57
2022-10-18T20:28:21.905Z,5.32
2022-10-18T20:30:23.419Z,6.03
2022-10-18T20:32:24.893Z,7.85
2022-10-18T20:34:26.618Z,5.25
2022-10-18T20:36:29.100Z,5.35
2022-10-18T20:38:31.698Z,4.57
2022-10-18T20:40:33.234Z,5.55
2022-10-18T20:42:36.499Z,5.05
2022-10-18T20:44:38.033Z,5.00
2022-10-18T20:46:40.157Z,4.75
2022-10-18T20:48:41.657Z,7.00
2022-10-18T20:50:43.149Z,11.35
2022-10-18T20:52:44.656Z,5.43
2022-10-18T20:54:46.172Z,4.38
2022-10-18T20:56:47.969Z,8.02
2022-10-18T20:58:53.762Z,7.28
2022-10-18T21:00:55.461Z,5.15
2022-10-18T21:02:57.882Z,4.72
2022-10-18T21:04:59.618Z,4.55
2022-10-18T21:07:03.014Z,6.90
2022-10-18T21:09:06.258Z,4.20
2022-10-18T21:11:08.656Z,3.65
2022-10-18T21:13:10.179Z,6.43
2022-10-18T21:15:13.167Z,5.70
2022-10-18T21:17:14.667Z,4.32
2022-10-18T21:19:18.163Z,4.55
2022-10-18T21:21:22.114Z,4.80
2022-10-18T21:23:23.744Z,6.70
2022-10-18T21:25:25.245Z,5.05
2022-10-18T21:27:26.748Z,4.80
2022-10-18T21:29:28.385Z,4.97
2022-10-18T21:31:32.927Z,4.40
2022-10-18T21:33:34.441Z,4.70
2022-10-18T21:35:36.402Z,4.85
2022-10-18T21:37:37.955Z,4.82
2022-10-18T21:39:39.438Z,5.57
2022-10-18T21:41:40.973Z,5.40
2022-10-18T21:43:44.037Z,5.25
2022-10-18T21:45:45.533Z,5.60
2022-10-18T21:47:48.446Z,6.93
2022-10-18T21:49:49.935Z,7.72
2022-10-18T21:51:51.722Z,9.27
2022-10-18T21:53:55.146Z,10.82
2022-10-18T21:55:56.845Z,6.90
2022-10-18T21:57:58.424Z,9.00
2022-10-18T22:00:00.133Z,9.55
2022-10-18T22:02:01.640Z,7.00
2022-10-18T22:04:06.989Z,6.30
2022-10-18T22:06:10.783Z,6.15
2022-10-18T22:08:12.262Z,7.10
2022-10-18T22:10:13.786Z,7.43
2022-10-18T22:12:15.273Z,5.85
2022-10-18T22:14:19.213Z,5.93
2022-10-18T22:16:21.323Z,8.23
2022-10-18T22:18:22.917Z,5.15
2022-10-18T22:20:25.926Z,3.92
2022-10-18T22:22:27.440Z,4.70
2022-10-18T22:24:29.083Z,5.60
2022-10-18T22:26:33.611Z,4.85
2022-10-18T22:28:35.722Z,5.07
2022-10-18T22:30:37.324Z,4.43
2022-10-18T22:32:38.925Z,4.20
2022-10-18T22:34:40.575Z,4.45
2022-10-18T22:36:43.678Z,3.58
2022-10-18T22:38:45.202Z,3.83
2022-10-18T22:40:46.757Z,3.90
2022-10-18T22:42:48.389Z,4.35
2022-10-18T22:44:49.861Z,3.97
2022-10-18T22:46:51.361Z,4.20
2022-10-18T22:48:52.888Z,4.35
2022-10-18T22:50:54.486Z,3.65
2022-10-18T22:52:57.288Z,3.63
2022-10-18T22:54:58.789Z,5.57
2022-10-18T22:57:00.282Z,4.25
2022-10-18T22:59:01.854Z,3.88
2022-10-18T23:01:05.758Z,4.25
2022-10-18T23:03:07.266Z,4.22
2022-10-18T23:05:09.261Z,4.50
2022-10-18T23:07:10.799Z,5.05
2022-10-18T23:09:13.638Z,5.50
2022-10-18T23:11:15.153Z,5.18
2022-10-18T23:13:16.701Z,5.30
2022-10-18T23:15:18.419Z,5.03
2022-10-18T23:17:19.911Z,5.15
2022-10-18T23:19:21.496Z,4.32
2022-10-18T23:21:24.251Z,4.45
2022-10-18T23:23:25.922Z,4.63
2022-10-18T23:25:28.836Z,3.65
2022-10-18T23:27:30.466Z,4.82
2022-10-18T23:29:31.968Z,3.97
2022-10-18T23:31:33.985Z,4.28
2022-10-18T23:33:35.863Z,4.40
2022-10-18T23:35:37.340Z,4.30
2022-10-18T23:37:38.872Z,4.03
2022-10-18T23:39:40.365Z,3.92
2022-10-18T23:41:43.233Z,3.90
2022-10-18T23:43:45.637Z,3.55
2022-10-18T23:47:53.599Z,3.17
2022-10-18T23:49:55.107Z,2.85
2022-10-18T23:51:56.587Z,2.63
2022-10-18T23:53:58.081Z,3.00
2022-10-18T23:56:01.576Z,2.72
2022-10-18T23:58:04.419Z,3.83
